AC4VM Weather Reports


Display with metric or nautical units.
time (UTC)temp
F
wind
direction
speed
MPH
gust
MPH
rain 1hr
in
rain 24hr
in
rain mn
in
humidity
%
barometer
mb
20240615041603 73 276 0.0 1.0 0.00 0.00 0.00 89 1012.1
20240615040029 73 276 0.0 2.0 0.00 0.00 0.00 89 1012.1
20240615034529 73 276 0.0 0.0 0.00 0.00 0.00 89 1012.0
20240615033031 73 276 0.0 0.0 0.00 0.00 0.00 88 1012.0
20240615031536 74 276 0.0 0.0 0.00 0.00 0.00 87 1011.9
20240615030030 74 276 0.0 0.0 0.00 0.00 0.00 86 1011.8
20240615024537 74 276 0.0 0.0 0.00 0.00 0.00 86 1011.8
20240615023026 76 276 0.0 1.0 0.00 0.00 0.00 84 1011.8
20240615021525 76 276 0.0 1.0 0.00 0.00 0.00 84 1011.6
20240615020035 77 275 0.0 2.0 0.00 0.00 0.00 81 1011.5
20240615014525 77 264 0.0 2.0 0.00 0.00 0.00 81 1011.3
20240615013029 78 264 0.0 0.0 0.00 0.00 0.00 77 1011.2
20240615011523 79 264 0.0 0.0 0.00 0.00 0.00 76 1011.1
20240615010047 80 264 0.0 0.0 0.00 0.00 0.00 72 1010.9
20240615004526 81 264 0.0 0.0 0.00 0.00 0.00 73 1010.9
20240615003022 82 270 0.0 0.0 0.00 0.00 0.00 68 1010.8
20240615001521 84 266 0.0 1.0 0.00 0.00 0.00 66 1010.7
20240615000051 84 266 0.0 2.0 0.00 0.00 0.00 64 1010.6
20240614234521 85 266 0.0 3.0 0.00 0.00 0.00 60 1010.5
20240614233026 86 266 0.0 5.0 0.00 0.00 0.00 58 1010.4
20240614231519 86 256 0.0 5.0 0.00 0.00 0.00 58 1010.5
20240614230019 87 248 1.0 6.0 0.00 0.00 0.00 58 1010.5
20240614224522 88 286 2.0 10.0 0.00 0.00 0.00 54 1010.3
20240614223017 87 250 0.0 5.0 0.00 0.00 0.00 59 1010.1
20240614221520 88 298 4.0 9.0 0.00 0.00 0.00 55 1010.1
20240614220015 89 261 2.0 10.0 0.00 0.00 0.00 54 1010.2
20240614214514 89 248 3.0 10.0 0.00 0.00 0.00 53 1010.4
20240614213013 88 277 0.0 10.0 0.00 0.00 0.00 55 1010.4
20240614211513 89 235 2.0 5.0 0.00 0.00 0.00 52 1010.3
20240614210013 89 272 0.0 9.0 0.00 0.00 0.00 59 1010.5
20240614204511 87 231 0.0 7.0 0.00 0.00 0.00 60 1010.5
20240614203008 88 227 1.0 5.0 0.00 0.00 0.00 55 1010.7
20240614201515 88 264 2.0 5.0 0.00 0.00 0.00 57 1010.8
20240614200006 89 228 3.0 8.0 0.00 0.00 0.00 60 1011.1
20240614194515 88 248 0.0 6.0 0.00 0.00 0.00 58 1011.1
20240614193002 88 247 3.0 10.0 0.00 0.00 0.00 57 1011.2
20240614191500 86 84 0.0 4.0 0.00 0.00 0.00 58 1011.4
20240614190059 87 261 2.0 8.0 0.00 0.00 0.00 58 1011.5
20240614184558 85 235 0.0 4.0 0.00 0.00 0.00 60 1011.7
20240614183057 88 262 4.0 12.0 0.00 0.00 0.00 55 1011.9
20240614181556 88 265 3.0 6.0 0.00 0.00 0.00 54 1012.0
20240614180100 88 260 4.0 9.0 0.00 0.00 0.00 63 1012.1
20240614174602 88 295 0.0 3.0 0.00 0.00 0.00 61 1012.4
20240614173049 86 225 0.0 7.0 0.00 0.00 0.00 60 1012.5
20240614171547 86 258 5.0 11.0 0.00 0.00 0.00 58 1012.5
20240614170050 87 250 1.0 5.0 0.00 0.00 0.00 61 1012.6
20240614164545 86 211 1.0 4.0 0.00 0.00 0.00 63 1012.6
20240614163047 85 216 1.0 4.0 0.00 0.00 0.00 59 1012.8
20240614161546 84 96 3.0 8.0 0.00 0.00 0.00 61 1012.8
20240614160041 84 113 1.0 5.0 0.00 0.00 0.00 67 1012.9
20240614154539 83 222 0.0 6.0 0.00 0.00 0.00 64 1013.0
20240614153037 83 208 1.0 5.0 0.00 0.00 0.00 66 1013.2
20240614151535 82 294 1.0 3.0 0.00 0.00 0.00 71 1013.2
20240614150034 81 131 1.0 4.0 0.00 0.00 0.00 68 1013.2
20240614144532 81 231 1.0 3.0 0.00 0.00 0.00 73 1013.5
20240614143041 80 50 0.0 3.0 0.00 0.00 0.00 71 1013.5
20240614141527 79 237 1.0 3.0 0.00 0.00 0.00 74 1013.4
20240614140024 78 248 0.0 3.0 0.00 0.00 0.00 75 1013.6
20240614134522 77 256 0.0 2.0 0.00 0.00 0.00 77 1013.6
20240614133019 77 249 0.0 4.0 0.00 0.00 0.00 80 1013.9
20240614131524 75 254 0.0 3.0 0.00 0.00 0.00 82 1013.9
20240614130012 74 263 0.0 2.0 0.00 0.00 0.00 81 1014.0
20240614124510 73 308 0.0 1.0 0.00 0.00 0.00 84 1014.0
20240614123013 72 248 0.0 1.0 0.00 0.00 0.00 85 1014.0
20240614121507 71 248 0.0 2.0 0.00 0.00 0.00 87 1013.9
20240614120100 70 284 0.0 1.0 0.00 0.00 0.00 90 1013.8
20240614114559 69 289 0.0 0.0 0.00 0.00 0.00 91 1013.9
20240614113101 68 289 0.0 1.0 0.00 0.00 0.00 93 1013.7
20240614111554 66 289 0.0 0.0 0.00 0.00 0.00 94 1013.4
20240614110057 66 290 0.0 1.0 0.00 0.00 0.00 95 1013.4
20240614104553 66 290 0.0 0.0 0.00 0.00 0.00 95 1013.3
20240614103052 66 288 0.0 2.0 0.00 0.00 0.00 95 1013.4
20240614101601 66 260 0.0 1.0 0.00 0.00 0.00 95 1013.0
20240614100058 66 260 0.0 0.0 0.00 0.00 0.00 94 1012.8
20240614094600 66 260 0.0 1.0 0.00 0.00 0.00 94 1012.6
20240614093056 66 260 0.0 0.0 0.00 0.00 0.00 94 1012.7
20240614091549 67 260 0.0 1.0 0.00 0.00 0.00 95 1012.7
20240614090047 66 260 0.0 2.0 0.00 0.00 0.00 95 1012.5
20240614084545 66 260 0.0 0.0 0.00 0.00 0.00 95 1012.4
20240614083106 67 260 0.0 1.0 0.00 0.00 0.00 95 1012.5
20240614081544 67 260 0.0 0.0 0.00 0.00 0.00 94 1012.5
20240614080042 67 260 0.0 0.0 0.00 0.00 0.00 94 1012.6
20240614074542 67 260 0.0 0.0 0.00 0.00 0.00 95 1012.6
20240614073040 67 260 0.0 1.0 0.00 0.00 0.00 94 1012.6
20240614071547 67 260 0.0 0.0 0.00 0.00 0.00 94 1012.6
20240614070039 67 260 0.0 0.0 0.00 0.00 0.00 94 1012.8
20240614064548 67 260 0.0 0.0 0.00 0.00 0.00 94 1013.0
20240614063052 67 260 0.0 1.0 0.00 0.00 0.00 94 1013.1
20240614061536 67 260 0.0 0.0 0.00 0.00 0.00 93 1012.9
20240614060036 68 260 0.0 0.0 0.00 0.00 0.00 93 1012.9
20240614054540 68 260 0.0 1.0 0.00 0.00 0.00 93 1012.8
20240614053039 68 260 0.0 0.0 0.00 0.00 0.00 93 1012.6
20240614051545 68 260 0.0 0.0 0.00 0.00 0.00 92 1012.8
20240614050029 69 260 0.0 0.0 0.00 0.00 0.00 92 1012.8
20240614044527 69 260 0.0 1.0 0.00 0.00 0.00 91 1012.8
20240614043026 69 260 0.0 2.0 0.00 0.00 0.00 91 1012.9